Time;durP1;ratioP1;P1;durP2;ratioP2;P2;SDS_P1;SDS_P2;PMS_P1;PMS_P2;Temp;Humidity;BMP_temperature;BMP_pressure;BME280_temperature;BME280_humidity;BME280_pressure;Samples;Min_cycle;Max_cycle;Signal;HPM_P1;HPM_P2
2023/10/24 04:09:22;;;;;;;;;;;;;;;;;;5613899;23;19929;-76
2023/10/24 04:11:49;;;;;;;;;;;;;;;;;;5054868;28;19925;-77
2023/10/24 04:14:16;;;;;;;;;;;;;;;;;;5058074;28;20377;-80
2023/10/24 04:16:43;;;;;;;;;;;;;;;;;;5057830;28;20023;-77
2023/10/24 04:19:10;;;;;;;;;;;;;;;;;;5047216;28;19932;-78
2023/10/24 04:21:37;;;;;;;;;;;;;;;;;;5040965;28;19973;-77
2023/10/24 04:24:07;;;;;;;;;;;;;;;;;;5038552;28;19925;-79
2023/10/24 04:26:35;;;;;;;;;;;;;;;;;;5042841;28;19925;-78
2023/10/24 04:29:02;;;;;;;;;;;;;;;;;;5042357;28;20040;-78
2023/10/24 04:31:29;;;;;;;;;;;;;;;;;;5039230;28;19925;-77
2023/10/24 04:33:56;;;;;;;;;;;;;;;;;;5037616;28;19925;-79
2023/10/24 04:36:23;;;;;;;;;;;;;;;;;;5040515;28;19925;-78
2023/10/24 04:38:50;;;;;;;;;;;;;;;;;;5035994;28;20302;-76
2023/10/24 04:41:17;;;;;;;;;;;;;;;;;;5035056;28;19925;-75
2023/10/24 04:43:44;;;;;;;;;;;;;;;;;;5035724;28;19924;-74
2023/10/24 04:46:11;;;;;;;;;;;;;;;;;;5034503;28;20382;-75
2023/10/24 04:48:38;;;;;;;;;;;;;;;;;;5034473;28;19925;-74
2023/10/24 04:51:07;;;;;;;;;;;;;;;;;;5034697;28;19925;-74
2023/10/24 04:53:34;;;;;;;;;;;;;;;;;;5034553;28;19929;-74
2023/10/24 04:56:02;;;;;;;;;;;;;;;;;;5034413;28;19933;-72
2023/10/24 04:58:29;;;;;;;;;;;;;;;;;;5034201;28;20330;-74
2023/10/24 05:00:56;;;;;;;;;;;;;;;;;;5034355;28;19925;-76
2023/10/24 05:03:23;;;;;;;;;;;;;;;;;;5034262;28;20382;-72
2023/10/24 05:05:50;;;;;;;;;;;;;;;;;;5034241;28;19933;-76
2023/10/24 05:08:17;;;;;;;;;;;;;;;;;;5034199;28;20293;-74
2023/10/24 05:10:44;;;;;;;;;;;;;;;;;;4470520;28;15733458;-74
2023/10/24 05:13:11;;;;;;;;;;;;;;;;;;5029937;28;19932;-75
2023/10/24 05:15:38;;;;;;;;;;;;;;;;;;5035058;28;19925;-74
2023/10/24 05:18:05;;;;;;;;;;;;;;;;;;5034611;28;20304;-74
2023/10/24 05:20:32;;;;;;;;;;;;;;;;;;5034486;28;20460;-74
2023/10/24 05:22:59;;;;;;;;;;;;;;;;;;5034860;28;19925;-74
2023/10/24 05:25:25;;;;;;;;;;;;;;;;;;5034764;28;19929;-74
2023/10/24 05:27:52;;;;;;;;;;;;;;;;;;5034729;28;19931;-75
2023/10/24 05:30:19;;;;;;;;;;;;;;;;;;5034684;28;19932;-74
2023/10/24 05:32:46;;;;;;;;;;;;;;;;;;5034616;28;19983;-74
2023/10/24 05:35:13;;;;;;;;;;;;;;;;;;5034900;28;19932;-75
2023/10/24 05:37:40;;;;;;;;;;;;;;;;;;5034498;28;20401;-74
2023/10/24 05:40:07;;;;;;;;;;;;;;;;;;5034589;28;19929;-74
2023/10/24 05:42:34;;;;;;;;;;;;;;;;;;5034262;28;19972;-74
2023/10/24 05:45:01;;;;;;;;;;;;;;;;;;5034760;28;19932;-75
2023/10/24 05:47:28;;;;;;;;;;;;;;;;;;5034623;28;19932;-75
2023/10/24 05:49:55;;;;;;;;;;;;;;;;;;5034426;28;19932;-75
2023/10/24 05:52:21;;;;;;;;;;;;;;;;;;5034567;28;19957;-75
2023/10/24 05:54:48;;;;;;;;;;;;;;;;;;5034358;28;19932;-75
2023/10/24 05:57:15;;;;;;;;;;;;;;;;;;5034301;28;19932;-75
2023/10/24 05:59:42;;;;;;;;;;;;;;;;;;5034099;28;19932;-75
2023/10/24 06:02:09;;;;;;;;;;;;;;;;;;5034054;28;19925;-75
2023/10/24 06:04:36;;;;;;;;;;;;;;;;;;5034162;28;19929;-75
2023/10/24 06:07:03;;;;;;;;;;;;;;;;;;5034219;28;19925;-75
2023/10/24 06:09:30;;;;;;;;;;;;;;;;;;5033940;28;19932;-75
2023/10/24 06:11:57;;;;;;;;;;;;;;;;;;5034108;28;19932;-75
2023/10/24 06:14:24;;;;;;;;;;;;;;;;;;5034090;28;19925;-75
2023/10/24 06:16:50;;;;;;;;;;;;;;;;;;5034030;28;19925;-73
2023/10/24 06:19:17;;;;;;;;;;;;;;;;;;5033656;28;19925;-74
2023/10/24 06:21:44;;;;;;;;;;;;;;;;;;5033889;28;19925;-74
2023/10/24 06:24:11;;;;;;;;;;;;;;;;;;5033675;28;20408;-74
2023/10/24 06:26:38;;;;;;;;;;;;;;;;;;5033901;28;19933;-74
2023/10/24 06:29:05;;;;;;;;;;;;;;;;;;5033519;28;19925;-74
2023/10/24 06:31:32;;;;;;;;;;;;;;;;;;5033835;28;19926;-74
2023/10/24 06:33:59;;;;;;;;;;;;;;;;;;5033717;28;19926;-74
2023/10/24 06:36:26;;;;;;;;;;;;;;;;;;5033868;28;19929;-74
2023/10/24 06:38:53;;;;;;;;;;;;;;;;;;5033919;28;20290;-74
2023/10/24 06:41:20;;;;;;;;;;;;;;;;;;5033730;28;19932;-74
2023/10/24 06:43:47;;;;;;;;;;;;;;;;;;5033804;28;20301;-74
2023/10/24 06:46:14;;;;;;;;;;;;;;;;;;5033774;28;19926;-74
2023/10/24 06:48:41;;;;;;;;;;;;;;;;;;5033737;28;19925;-75
2023/10/24 06:51:08;;;;;;;;;;;;;;;;;;5033613;28;20390;-75
2023/10/24 06:53:35;;;;;;;;;;;;;;;;;;5034556;28;19925;-74
2023/10/24 06:56:01;;;;;;;;;;;;;;;;;;5038455;28;19925;-75
2023/10/24 06:58:28;;;;;;;;;;;;;;;;;;5038342;28;19925;-75
2023/10/24 07:00:56;;;;;;;;;;;;;;;;;;5038197;28;20370;-75
2023/10/24 07:03:23;;;;;;;;;;;;;;;;;;5038506;28;19932;-75
2023/10/24 07:05:50;;;;;;;;;;;;;;;;;;5038198;28;19972;-74
2023/10/24 07:08:16;;;;;;;;;;;;;;;;;;5038269;28;20329;-74
2023/10/24 07:10:43;;;;;;;;;;;;;;;;;;5037259;28;19932;-75
2023/10/24 07:13:11;;;;;;;;;;;;;;;;;;5037856;28;19925;-75
2023/10/24 07:15:38;;;;;;;;;;;;;;;;;;5037840;28;20059;-74
2023/10/24 07:18:05;;;;;;;;;;;;;;;;;;5038137;28;19931;-74
2023/10/24 07:20:32;;;;;;;;;;;;;;;;;;5038185;28;19925;-75
2023/10/24 07:22:59;;;;;;;;;;;;;;;;;;5037982;28;19925;-75
2023/10/24 07:25:26;;;;;;;;;;;;;;;;;;5038543;28;19925;-74
2023/10/24 07:27:53;;;;;;;;;;;;;;;;;;5037948;28;20378;-75
2023/10/24 07:30:22;;;;;;;;;;;;;;;;;;5038278;28;19932;-74
2023/10/24 07:32:50;;;;;;;;;;;;;;;;;;5038038;28;19967;-75
2023/10/24 07:35:17;;;;;;;;;;;;;;;;;;5037716;28;20019;-74
2023/10/24 07:37:44;;;;;;;;;;;;;;;;;;5037122;28;20402;-75
2023/10/24 07:40:11;;;;;;;;;;;;;;;;;;5037097;28;19925;-74
2023/10/24 07:42:38;;;;;;;;;;;;;;;;;;5037585;28;19925;-74
2023/10/24 07:45:05;;;;;;;;;;;;;;;;;;5037236;28;19925;-74
2023/10/24 07:47:32;;;;;;;;;;;;;;;;;;5038188;28;19951;-74
2023/10/24 07:50:00;;;;;;;;;;;;;;;;;;5037982;28;19929;-73
2023/10/24 07:52:26;;;;;;;;;;;;;;;;;;5036878;28;19926;-73
2023/10/24 07:54:53;;;;;;;;;;;;;;;;;;5036728;28;19925;-73
2023/10/24 07:57:20;;;;;;;;;;;;;;;;;;5036701;28;19925;-73
2023/10/24 07:59:47;;;;;;;;;;;;;;;;;;5036620;28;20298;-73
2023/10/24 08:02:14;;;;;;;;;;;;;;;;;;5036272;28;19925;-73
2023/10/24 08:04:41;;;;;;;;;;;;;;;;;;5036549;28;19925;-73
2023/10/24 08:07:08;;;;;;;;;;;;;;;;;;5034979;28;19925;-73
2023/10/24 08:09:35;;;;;;;;;;;;;;;;;;5036108;28;19932;-74
2023/10/24 08:12:02;;;;;;;;;;;;;;;;;;5036195;28;19925;-74
2023/10/24 08:14:29;;;;;;;;;;;;;;;;;;5036897;28;19925;-75
2023/10/24 08:16:56;;;;;;;;;;;;;;;;;;5036046;28;20021;-74
2023/10/24 08:19:23;;;;;;;;;;;;;;;;;;5035565;28;20068;-74
2023/10/24 08:21:50;;;;;;;;;;;;;;;;;;5035897;28;19947;-74
2023/10/24 08:24:17;;;;;;;;;;;;;;;;;;5036003;28;19926;-73
2023/10/24 08:26:43;;;;;;;;;;;;;;;;;;5036054;28;19925;-73
2023/10/24 08:29:10;;;;;;;;;;;;;;;;;;5035886;28;19925;-75
2023/10/24 08:31:37;;;;;;;;;;;;;;;;;;5035869;28;19941;-75
2023/10/24 08:34:06;;;;;;;;;;;;;;;;;;5035449;28;20279;-74
2023/10/24 08:36:33;;;;;;;;;;;;;;;;;;5035481;28;20374;-75
2023/10/24 08:39:00;;;;;;;;;;;;;;;;;;5035618;28;19925;-77
2023/10/24 08:41:27;;;;;;;;;;;;;;;;;;5035248;28;19932;-76
2023/10/24 08:43:54;;;;;;;;;;;;;;;;;;5035456;28;20357;-75
2023/10/24 08:46:21;;;;;;;;;;;;;;;;;;5035615;28;20031;-75
2023/10/24 08:48:48;;;;;;;;;;;;;;;;;;5035620;28;19925;-75
2023/10/24 08:51:15;;;;;;;;;;;;;;;;;;5035194;28;20302;-77
2023/10/24 08:53:42;;;;;;;;;;;;;;;;;;5035637;28;19926;-76
2023/10/24 08:56:09;;;;;;;;;;;;;;;;;;5035535;28;19948;-76
2023/10/24 08:58:36;;;;;;;;;;;;;;;;;;5035641;28;19932;-76
2023/10/24 09:01:03;;;;;;;;;;;;;;;;;;5036023;28;19948;-77
2023/10/24 09:03:30;;;;;;;;;;;;;;;;;;5037197;28;19925;-76
2023/10/24 09:05:57;;;;;;;;;;;;;;;;;;5037032;28;19925;-76
2023/10/24 09:08:24;;;;;;;;;;;;;;;;;;5036574;28;19925;-76
2023/10/24 09:10:51;;;;;;;;;;;;;;;;;;5036064;28;19925;-76
2023/10/24 09:13:18;;;;;;;;;;;;;;;;;;5036026;28;20469;-76
2023/10/24 09:15:45;;;;;;;;;;;;;;;;;;5036465;28;19932;-76
2023/10/24 09:18:12;;;;;;;;;;;;;;;;;;5035901;28;19925;-76
2023/10/24 09:20:39;;;;;;;;;;;;;;;;;;5036937;28;20028;-76
2023/10/24 09:23:06;;;;;;;;;;;;;;;;;;5038591;28;19925;-76
2023/10/24 09:25:33;;;;;;;;;;;;;;;;;;5037838;28;20024;-76
2023/10/24 09:28:00;;;;;;;;;;;;;;;;;;5037346;28;19948;-76
2023/10/24 09:30:27;;;;;;;;;;;;;;;;;;5037835;28;19925;-76
2023/10/24 09:32:54;;;;;;;;;;;;;;;;;;5036529;28;19925;-77
2023/10/24 09:35:20;;;;;;;;;;;;;;;;;;5035467;28;20405;-76
2023/10/24 09:37:47;;;;;;;;;;;;;;;;;;5035522;28;19931;-75
2023/10/24 09:40:14;;;;;;;;;;;;;;;;;;5035674;28;19948;-77
2023/10/24 09:42:41;;;;;;;;;;;;;;;;;;5035538;28;19932;-76
2023/10/24 09:45:08;;;;;;;;;;;;;;;;;;5034563;28;19936;-76
2023/10/24 09:47:35;;;;;;;;;;;;;;;;;;5034491;28;19972;-76
2023/10/24 09:50:02;;;;;;;;;;;;;;;;;;5034339;28;19925;-76
2023/10/24 09:52:29;;;;;;;;;;;;;;;;;;5034475;28;19925;-76
2023/10/24 09:54:56;;;;;;;;;;;;;;;;;;5034457;28;20362;-76
2023/10/24 09:57:23;;;;;;;;;;;;;;;;;;5034349;28;19925;-76
2023/10/24 09:59:52;;;;;;;;;;;;;;;;;;5033937;28;20416;-76
2023/10/24 10:02:20;;;;;;;;;;;;;;;;;;5033931;28;19935;-76
2023/10/24 10:04:47;;;;;;;;;;;;;;;;;;5034328;28;19925;-76
2023/10/24 10:07:14;;;;;;;;;;;;;;;;;;5034168;28;19932;-76
2023/10/24 10:09:41;;;;;;;;;;;;;;;;;;5033554;28;20408;-76
2023/10/24 10:12:08;;;;;;;;;;;;;;;;;;5034170;28;19933;-76
2023/10/24 10:14:35;;;;;;;;;;;;;;;;;;5034124;28;19972;-76
2023/10/24 10:17:02;;;;;;;;;;;;;;;;;;5036075;28;19926;-75
2023/10/24 10:19:29;;;;;;;;;;;;;;;;;;5034063;28;19932;-75
2023/10/24 10:21:56;;;;;;;;;;;;;;;;;;5033923;28;19932;-75
2023/10/24 10:24:23;;;;;;;;;;;;;;;;;;5034023;28;19926;-75
2023/10/24 10:26:52;;;;;;;;;;;;;;;;;;5033665;28;19925;-75
2023/10/24 10:29:19;;;;;;;;;;;;;;;;;;5033092;28;19925;-75
2023/10/24 10:31:46;;;;;;;;;;;;;;;;;;5033665;28;20301;-75
2023/10/24 10:34:13;;;;;;;;;;;;;;;;;;5033933;28;20019;-75
2023/10/24 10:36:40;;;;;;;;;;;;;;;;;;5033517;28;20275;-76
2023/10/24 10:39:09;;;;;;;;;;;;;;;;;;5033874;28;19936;-76
2023/10/24 10:41:36;;;;;;;;;;;;;;;;;;5033997;28;19925;-77
2023/10/24 10:44:05;;;;;;;;;;;;;;;;;;5069947;23;19928;-76
2023/10/24 10:46:32;;;;;;;;;;;;;;;;;;5053874;28;19925;-75
2023/10/24 10:48:59;;;;;;;;;;;;;;;;;;5054216;28;19925;-77
2023/10/24 10:51:26;;;;;;;;;;;;;;;;;;5053755;28;20392;-76
2023/10/24 10:53:53;;;;;;;;;;;;;;;;;;5040518;28;19979;-75
2023/10/24 10:56:20;;;;;;;;;;;;;;;;;;5034110;28;19940;-76
2023/10/24 10:58:47;;;;;;;;;;;;;;;;;;5033974;28;19929;-75
2023/10/24 11:01:14;;;;;;;;;;;;;;;;;;5034321;28;19929;-75
2023/10/24 11:03:40;;;;;;;;;;;;;;;;;;5033761;28;19929;-76
2023/10/24 11:06:07;;;;;;;;;;;;;;;;;;5033710;28;19932;-75
2023/10/24 11:08:34;;;;;;;;;;;;;;;;;;5033844;28;19925;-75
2023/10/24 11:11:01;;;;;;;;;;;;;;;;;;5033147;28;20382;-75
2023/10/24 11:13:28;;;;;;;;;;;;;;;;;;5033552;28;19932;-75
2023/10/24 11:15:55;;;;;;;;;;;;;;;;;;5033863;28;20409;-75
2023/10/24 11:18:22;;;;;;;;;;;;;;;;;;5034960;28;19932;-75
2023/10/24 11:20:49;;;;;;;;;;;;;;;;;;5034480;28;20396;-75
2023/10/24 11:23:16;;;;;;;;;;;;;;;;;;5034519;28;20279;-75
2023/10/24 11:25:43;;;;;;;;;;;;;;;;;;5034728;28;19940;-75
2023/10/24 11:28:10;;;;;;;;;;;;;;;;;;5033623;28;19928;-75
2023/10/24 11:30:37;;;;;;;;;;;;;;;;;;5034295;28;19928;-76
2023/10/24 11:33:04;;;;;;;;;;;;;;;;;;5033624;28;19925;-76
2023/10/24 11:35:31;;;;;;;;;;;;;;;;;;5033571;28;19925;-74
2023/10/24 11:37:58;;;;;;;;;;;;;;;;;;5033606;28;19930;-75
2023/10/24 11:40:25;;;;;;;;;;;;;;;;;;5035261;28;19926;-75
2023/10/24 11:42:52;;;;;;;;;;;;;;;;;;5038170;28;19925;-75
2023/10/24 11:45:18;;;;;;;;;;;;;;;;;;5037793;28;19925;-76
2023/10/24 11:47:45;;;;;;;;;;;;;;;;;;5037350;28;19925;-76
2023/10/24 11:50:13;;;;;;;;;;;;;;;;;;5037247;28;19925;-76
2023/10/24 11:52:40;;;;;;;;;;;;;;;;;;5037554;28;19925;-75
2023/10/24 11:55:06;;;;;;;;;;;;;;;;;;5036839;28;20302;-76
2023/10/24 11:57:34;;;;;;;;;;;;;;;;;;5037392;28;19932;-75
2023/10/24 12:00:01;;;;;;;;;;;;;;;;;;5037113;28;20313;-75
2023/10/24 12:02:27;;;;;;;;;;;;;;;;;;5037037;28;19936;-75
2023/10/24 12:04:54;;;;;;;;;;;;;;;;;;5037128;28;19925;-75
2023/10/24 12:07:21;;;;;;;;;;;;;;;;;;5036872;28;19931;-75
2023/10/24 12:09:48;;;;;;;;;;;;;;;;;;5036952;28;19932;-76
2023/10/24 12:12:15;;;;;;;;;;;;;;;;;;5036541;28;19932;-77
2023/10/24 12:14:42;;;;;;;;;;;;;;;;;;5037969;28;19957;-75
2023/10/24 12:17:09;;;;;;;;;;;;;;;;;;5036550;28;20023;-75
2023/10/24 12:19:37;;;;;;;;;;;;;;;;;;5036400;28;19925;-75
2023/10/24 12:22:04;;;;;;;;;;;;;;;;;;5036327;28;19925;-75
2023/10/24 12:24:31;;;;;;;;;;;;;;;;;;5036403;28;19932;-76
2023/10/24 12:26:58;;;;;;;;;;;;;;;;;;5035952;28;20411;-75
2023/10/24 12:29:25;;;;;;;;;;;;;;;;;;5036396;28;19925;-75
2023/10/24 12:31:51;;;;;;;;;;;;;;;;;;5036238;28;20294;-75
2023/10/24 12:34:18;;;;;;;;;;;;;;;;;;5036330;28;19925;-75
2023/10/24 12:36:46;;;;;;;;;;;;;;;;;;5036094;28;19932;-75
2023/10/24 12:39:13;;;;;;;;;;;;;;;;;;5036124;28;19971;-76
2023/10/24 12:41:40;;;;;;;;;;;;;;;;;;5035581;28;20396;-76
2023/10/24 12:44:07;;;;;;;;;;;;;;;;;;5035500;28;19936;-76
2023/10/24 12:46:34;;;;;;;;;;;;;;;;;;5035932;28;19925;-75
2023/10/24 12:49:01;;;;;;;;;;;;;;;;;;5035987;28;19926;-76
2023/10/24 12:51:28;;;;;;;;;;;;;;;;;;5035408;28;19929;-76
2023/10/24 12:53:55;;;;;;;;;;;;;;;;;;5035216;28;19975;-76
2023/10/24 12:56:22;;;;;;;;;;;;;;;;;;5035437;28;20405;-75
2023/10/24 12:58:49;;;;;;;;;;;;;;;;;;5035503;28;19925;-76
2023/10/24 13:01:16;;;;;;;;;;;;;;;;;;5035660;28;19925;-76
2023/10/24 13:03:43;;;;;;;;;;;;;;;;;;5035464;28;19925;-76
2023/10/24 13:06:10;;;;;;;;;;;;;;;;;;5036868;28;19925;-75
2023/10/24 13:08:37;;;;;;;;;;;;;;;;;;5035872;28;19932;-75
2023/10/24 13:11:04;;;;;;;;;;;;;;;;;;5035334;28;19933;-75
2023/10/24 13:13:31;;;;;;;;;;;;;;;;;;5035475;28;19925;-76
2023/10/24 13:15:58;;;;;;;;;;;;;;;;;;5035387;28;20379;-74
2023/10/24 13:18:24;;;;;;;;;;;;;;;;;;5035430;28;19932;-75
2023/10/24 13:20:51;;;;;;;;;;;;;;;;;;5035179;28;19925;-75
2023/10/24 13:23:18;;;;;;;;;;;;;;;;;;5035307;28;19936;-75
2023/10/24 13:25:45;;;;;;;;;;;;;;;;;;5035184;28;19926;-76
2023/10/24 13:28:12;;;;;;;;;;;;;;;;;;5034819;28;20395;-75
2023/10/24 13:30:39;;;;;;;;;;;;;;;;;;5035215;28;19932;-76
2023/10/24 13:33:06;;;;;;;;;;;;;;;;;;5034546;28;20298;-76
2023/10/24 13:35:33;;;;;;;;;;;;;;;;;;5035521;28;19925;-75
2023/10/24 13:38:00;;;;;;;;;;;;;;;;;;5034876;28;19925;-75
2023/10/24 13:40:27;;;;;;;;;;;;;;;;;;5034826;28;19925;-76
2023/10/24 13:42:53;;;;;;;;;;;;;;;;;;5034331;28;19948;-75
2023/10/24 13:45:21;;;;;;;;;;;;;;;;;;5034586;28;20358;-75
2023/10/24 13:47:48;;;;;;;;;;;;;;;;;;5034488;28;20047;-75
2023/10/24 13:50:15;;;;;;;;;;;;;;;;;;5034729;28;19995;-76
2023/10/24 13:52:41;;;;;;;;;;;;;;;;;;5034589;28;19925;-75
2023/10/24 13:55:08;;;;;;;;;;;;;;;;;;5034599;28;19929;-75
2023/10/24 13:57:35;;;;;;;;;;;;;;;;;;5034286;28;20342;-75
2023/10/24 14:00:03;;;;;;;;;;;;;;;;;;5034090;28;19932;-76
2023/10/24 14:02:30;;;;;;;;;;;;;;;;;;5034312;28;19925;-76
2023/10/24 14:04:57;;;;;;;;;;;;;;;;;;5034182;28;19925;-75
2023/10/24 14:07:24;;;;;;;;;;;;;;;;;;5034216;28;20275;-76
2023/10/24 14:09:51;;;;;;;;;;;;;;;;;;5034510;28;19925;-76
2023/10/24 14:12:18;;;;;;;;;;;;;;;;;;5034369;28;19925;-76
2023/10/24 14:14:45;;;;;;;;;;;;;;;;;;5034376;28;19963;-75
2023/10/24 14:17:11;;;;;;;;;;;;;;;;;;5034526;28;19952;-75
2023/10/24 14:19:38;;;;;;;;;;;;;;;;;;5034512;28;19932;-76
2023/10/24 14:22:05;;;;;;;;;;;;;;;;;;5034309;28;19925;-75
2023/10/24 14:24:32;;;;;;;;;;;;;;;;;;5033784;28;19925;-76
2023/10/24 14:26:59;;;;;;;;;;;;;;;;;;5034148;28;19936;-75
2023/10/24 14:29:26;;;;;;;;;;;;;;;;;;5034339;28;19925;-75
2023/10/24 14:31:53;;;;;;;;;;;;;;;;;;5034027;28;19925;-76
2023/10/24 14:34:20;;;;;;;;;;;;;;;;;;5034078;28;19926;-75
2023/10/24 14:36:47;;;;;;;;;;;;;;;;;;5033955;28;20390;-75
2023/10/24 14:39:14;;;;;;;;;;;;;;;;;;5034046;28;19932;-76
2023/10/24 14:41:41;;;;;;;;;;;;;;;;;;5034091;28;19925;-75
2023/10/24 14:44:08;;;;;;;;;;;;;;;;;;5033616;28;19948;-75
2023/10/24 14:46:35;;;;;;;;;;;;;;;;;;5034097;28;19925;-75
2023/10/24 14:49:02;;;;;;;;;;;;;;;;;;5033832;28;19931;-75
2023/10/24 14:51:29;;;;;;;;;;;;;;;;;;5033776;28;20414;-75
2023/10/24 14:53:56;;;;;;;;;;;;;;;;;;5034080;28;19925;-75
2023/10/24 14:56:23;;;;;;;;;;;;;;;;;;5033407;28;19925;-75
2023/10/24 14:58:50;;;;;;;;;;;;;;;;;;5033664;28;19932;-76
2023/10/24 15:01:17;;;;;;;;;;;;;;;;;;5033572;28;20405;-76
2023/10/24 15:03:44;;;;;;;;;;;;;;;;;;5033469;28;19925;-76
2023/10/24 15:06:11;;;;;;;;;;;;;;;;;;5033533;28;19933;-76
2023/10/24 15:08:38;;;;;;;;;;;;;;;;;;5033522;28;20386;-75
2023/10/24 15:11:05;;;;;;;;;;;;;;;;;;5033653;28;19925;-76
2023/10/24 15:13:33;;;;;;;;;;;;;;;;;;5033503;28;19925;-75
2023/10/24 15:15:59;;;;;;;;;;;;;;;;;;5035700;28;19935;-76
2023/10/24 15:18:26;;;;;;;;;;;;;;;;;;5037543;28;19932;-75
2023/10/24 15:20:53;;;;;;;;;;;;;;;;;;5036942;28;20399;-75
2023/10/24 15:23:20;;;;;;;;;;;;;;;;;;5037127;28;19930;-76
2023/10/24 15:25:47;;;;;;;;;;;;;;;;;;5037330;28;19948;-77
2023/10/24 15:28:14;;;;;;;;;;;;;;;;;;5037464;28;19925;-76
2023/10/24 15:30:41;;;;;;;;;;;;;;;;;;5037194;28;19925;-75
2023/10/24 15:33:08;;;;;;;;;;;;;;;;;;5037467;28;19925;-76
2023/10/24 15:35:35;;;;;;;;;;;;;;;;;;5037243;28;19925;-76
2023/10/24 15:38:02;;;;;;;;;;;;;;;;;;5037914;28;19925;-75
2023/10/24 15:40:29;;;;;;;;;;;;;;;;;;5036971;28;19935;-77
2023/10/24 15:42:56;;;;;;;;;;;;;;;;;;5036777;28;19925;-75
2023/10/24 15:45:23;;;;;;;;;;;;;;;;;;5036920;28;19948;-75
2023/10/24 15:47:50;;;;;;;;;;;;;;;;;;5036853;28;19925;-75
2023/10/24 15:50:17;;;;;;;;;;;;;;;;;;5036842;28;19925;-76
2023/10/24 15:52:45;;;;;;;;;;;;;;;;;;5036924;28;19932;-75
2023/10/24 15:55:12;;;;;;;;;;;;;;;;;;5036612;28;20284;-75
2023/10/24 15:57:39;;;;;;;;;;;;;;;;;;5036731;28;19925;-75
2023/10/24 16:00:05;;;;;;;;;;;;;;;;;;5036887;28;19947;-75
2023/10/24 16:02:32;;;;;;;;;;;;;;;;;;5036649;28;19932;-76
2023/10/24 16:04:59;;;;;;;;;;;;;;;;;;5036773;28;19933;-75
2023/10/24 16:07:26;;;;;;;;;;;;;;;;;;5036593;28;19932;-76
2023/10/24 16:09:53;;;;;;;;;;;;;;;;;;5036457;28;19925;-76
2023/10/24 16:12:20;;;;;;;;;;;;;;;;;;5036077;28;20405;-76
2023/10/24 16:14:47;;;;;;;;;;;;;;;;;;5036284;28;19932;-76
2023/10/24 16:17:14;;;;;;;;;;;;;;;;;;5036425;28;19975;-76
2023/10/24 16:19:41;;;;;;;;;;;;;;;;;;5036912;28;19925;-75
2023/10/24 16:22:08;;;;;;;;;;;;;;;;;;5035925;28;20405;-75
2023/10/24 16:24:34;;;;;;;;;;;;;;;;;;5036174;28;19932;-76
2023/10/24 16:27:01;;;;;;;;;;;;;;;;;;5035152;28;20008;-76
2023/10/24 16:29:28;;;;;;;;;;;;;;;;;;5036677;28;19926;-76
2023/10/24 16:31:55;;;;;;;;;;;;;;;;;;5036021;28;20393;-76
2023/10/24 16:34:22;;;;;;;;;;;;;;;;;;5036236;28;19932;-76
2023/10/24 16:36:49;;;;;;;;;;;;;;;;;;5035961;28;20379;-76
2023/10/24 16:39:15;;;;;;;;;;;;;;;;;;5036423;28;19925;-76
2023/10/24 16:41:42;;;;;;;;;;;;;;;;;;5036363;28;19925;-76
2023/10/24 16:44:09;;;;;;;;;;;;;;;;;;5068284;23;19931;-74
2023/10/24 16:46:36;;;;;;;;;;;;;;;;;;5056063;28;20335;-74
2023/10/24 16:49:03;;;;;;;;;;;;;;;;;;5055902;28;19925;-74
2023/10/24 16:51:30;;;;;;;;;;;;;;;;;;5056065;28;19928;-75
2023/10/24 16:53:57;;;;;;;;;;;;;;;;;;5046316;28;19925;-74
2023/10/24 16:56:24;;;;;;;;;;;;;;;;;;5036307;28;19931;-77
2023/10/24 16:58:51;;;;;;;;;;;;;;;;;;5037074;28;20397;-78
2023/10/24 17:01:18;;;;;;;;;;;;;;;;;;5037201;28;19925;-78
2023/10/24 17:03:45;;;;;;;;;;;;;;;;;;5038548;28;20301;-78
2023/10/24 17:06:12;;;;;;;;;;;;;;;;;;5040269;28;19925;-79
2023/10/24 17:08:38;;;;;;;;;;;;;;;;;;5040021;28;20298;-78
2023/10/24 17:11:07;;;;;;;;;;;;;;;;;;5041356;28;19925;-79
2023/10/24 17:13:34;;;;;;;;;;;;;;;;;;5042771;28;19932;-79
2023/10/24 17:16:01;;;;;;;;;;;;;;;;;;5042405;28;19952;-79
2023/10/24 17:18:28;;;;;;;;;;;;;;;;;;5039777;28;19956;-78
2023/10/24 17:20:55;;;;;;;;;;;;;;;;;;5038730;28;19932;-78
2023/10/24 17:23:27;;;;;;;;;;;;;;;;;;5038273;28;19932;-77
2023/10/24 17:25:54;;;;;;;;;;;;;;;;;;5038588;28;19926;-78
2023/10/24 17:28:21;;;;;;;;;;;;;;;;;;5039191;28;19928;-78
2023/10/24 17:30:48;;;;;;;;;;;;;;;;;;5038780;28;19948;-78
2023/10/24 17:33:15;;;;;;;;;;;;;;;;;;5038092;28;19925;-79
2023/10/24 17:35:42;;;;;;;;;;;;;;;;;;5042736;28;19925;-78
2023/10/24 17:38:08;;;;;;;;;;;;;;;;;;5045500;28;19932;-78
2023/10/24 17:40:35;;;;;;;;;;;;;;;;;;5048885;28;19931;-79
2023/10/24 17:43:02;;;;;;;;;;;;;;;;;;5047941;28;19931;-78
2023/10/24 17:45:31;;;;;;;;;;;;;;;;;;5039965;28;20408;-74
2023/10/24 17:47:58;;;;;;;;;;;;;;;;;;5035178;28;19932;-76
2023/10/24 17:50:25;;;;;;;;;;;;;;;;;;5035105;28;19925;-76
2023/10/24 17:52:52;;;;;;;;;;;;;;;;;;5034723;28;20267;-75
2023/10/24 17:55:19;;;;;;;;;;;;;;;;;;5035293;28;19925;-75
2023/10/24 17:57:46;;;;;;;;;;;;;;;;;;5035078;28;19925;-75
2023/10/24 18:00:13;;;;;;;;;;;;;;;;;;5034879;28;19925;-75
2023/10/24 18:02:40;;;;;;;;;;;;;;;;;;5035330;28;19925;-75
2023/10/24 18:05:07;;;;;;;;;;;;;;;;;;5035008;28;20070;-75
2023/10/24 18:07:34;;;;;;;;;;;;;;;;;;5034922;28;19925;-77
2023/10/24 18:10:01;;;;;;;;;;;;;;;;;;5035409;28;19936;-78
2023/10/24 18:12:28;;;;;;;;;;;;;;;;;;5035076;28;19925;-77
2023/10/24 18:14:55;;;;;;;;;;;;;;;;;;5034744;28;20405;-77
2023/10/24 18:17:22;;;;;;;;;;;;;;;;;;5034657;28;19926;-77
2023/10/24 18:19:49;;;;;;;;;;;;;;;;;;5034998;28;19925;-76
2023/10/24 18:22:15;;;;;;;;;;;;;;;;;;5035219;28;19979;-76
2023/10/24 18:24:42;;;;;;;;;;;;;;;;;;5034505;28;19932;-76
2023/10/24 18:27:09;;;;;;;;;;;;;;;;;;5034288;28;19932;-77
2023/10/24 18:29:38;;;;;;;;;;;;;;;;;;5034232;28;20393;-76
2023/10/24 18:32:04;;;;;;;;;;;;;;;;;;5034389;28;19925;-76
2023/10/24 18:34:31;;;;;;;;;;;;;;;;;;5034271;28;19926;-77
2023/10/24 18:36:59;;;;;;;;;;;;;;;;;;5034543;28;19925;-77
2023/10/24 18:39:25;;;;;;;;;;;;;;;;;;5034334;28;19975;-76
2023/10/24 18:41:52;;;;;;;;;;;;;;;;;;5034477;28;19925;-77
2023/10/24 18:44:19;;;;;;;;;;;;;;;;;;5034626;28;19925;-76
2023/10/24 18:46:46;;;;;;;;;;;;;;;;;;5034734;28;19925;-77
2023/10/24 18:49:13;;;;;;;;;;;;;;;;;;5034602;28;19925;-76
2023/10/24 18:51:40;;;;;;;;;;;;;;;;;;5037568;28;19932;-76
2023/10/24 18:54:07;;;;;;;;;;;;;;;;;;5038214;28;19932;-78
2023/10/24 18:56:34;;;;;;;;;;;;;;;;;;5038528;28;19926;-77
2023/10/24 18:59:02;;;;;;;;;;;;;;;;;;5038434;28;19972;-80
2023/10/24 19:01:29;;;;;;;;;;;;;;;;;;5038560;28;19988;-77
2023/10/24 19:03:56;;;;;;;;;;;;;;;;;;5038453;28;19925;-76
2023/10/24 19:06:23;;;;;;;;;;;;;;;;;;5039700;28;19932;-73
2023/10/24 19:08:50;;;;;;;;;;;;;;;;;;5039794;28;19925;-76
2023/10/24 19:11:17;;;;;;;;;;;;;;;;;;5039440;28;19929;-73
2023/10/24 19:13:44;;;;;;;;;;;;;;;;;;5039828;28;19976;-77
2023/10/24 19:16:11;;;;;;;;;;;;;;;;;;5039013;28;19929;-78
2023/10/24 19:18:38;;;;;;;;;;;;;;;;;;5038372;28;19956;-75
2023/10/24 19:21:05;;;;;;;;;;;;;;;;;;5039859;28;19925;-76
2023/10/24 19:23:32;;;;;;;;;;;;;;;;;;5040442;28;19961;-74
2023/10/24 19:25:59;;;;;;;;;;;;;;;;;;5038732;28;19933;-73
2023/10/24 19:28:26;;;;;;;;;;;;;;;;;;5043266;28;19932;-81
2023/10/24 19:30:53;;;;;;;;;;;;;;;;;;5044563;28;19933;-80
2023/10/24 19:33:20;;;;;;;;;;;;;;;;;;5055744;28;19925;-78
2023/10/24 19:35:47;;;;;;;;;;;;;;;;;;5055192;28;19931;-77
2023/10/24 19:38:14;;;;;;;;;;;;;;;;;;5055900;28;19965;-80
2023/10/24 19:40:41;;;;;;;;;;;;;;;;;;5055560;28;19931;-77
2023/10/24 19:43:08;;;;;;;;;;;;;;;;;;5048490;28;19964;-82
2023/10/24 19:45:35;;;;;;;;;;;;;;;;;;5043850;28;19925;-81
2023/10/24 19:48:02;;;;;;;;;;;;;;;;;;5041932;28;20236;-82
2023/10/24 19:50:29;;;;;;;;;;;;;;;;;;5041443;28;19925;-81
2023/10/24 19:52:56;;;;;;;;;;;;;;;;;;5041572;28;19929;-80
2023/10/24 19:55:23;;;;;;;;;;;;;;;;;;5040663;28;19925;-80
2023/10/24 19:57:50;;;;;;;;;;;;;;;;;;5040197;28;19925;-80
2023/10/24 20:00:17;;;;;;;;;;;;;;;;;;5041843;28;19925;-81
2023/10/24 20:02:45;;;;;;;;;;;;;;;;;;5040874;28;19925;-80
2023/10/24 20:05:12;;;;;;;;;;;;;;;;;;5041148;28;19980;-80
2023/10/24 20:07:39;;;;;;;;;;;;;;;;;;5042681;28;19925;-80
2023/10/24 20:10:06;;;;;;;;;;;;;;;;;;5041964;28;20397;-80
2023/10/24 20:12:33;;;;;;;;;;;;;;;;;;5039700;28;20310;-79
2023/10/24 20:15:00;;;;;;;;;;;;;;;;;;5037320;28;19931;-78
2023/10/24 20:17:27;;;;;;;;;;;;;;;;;;5036758;28;19931;-77
2023/10/24 20:19:54;;;;;;;;;;;;;;;;;;5037223;28;20301;-78
2023/10/24 20:22:21;;;;;;;;;;;;;;;;;;5037071;28;20017;-77
2023/10/24 20:24:47;;;;;;;;;;;;;;;;;;5035838;28;20264;-76
2023/10/24 20:27:14;;;;;;;;;;;;;;;;;;5036389;28;19926;-76
2023/10/24 20:29:44;;;;;;;;;;;;;;;;;;5036093;28;20386;-77
2023/10/24 20:32:11;;;;;;;;;;;;;;;;;;5036215;28;19932;-76
2023/10/24 20:34:38;;;;;;;;;;;;;;;;;;5036253;28;19931;-77
2023/10/24 20:37:05;;;;;;;;;;;;;;;;;;5036284;28;19932;-77
2023/10/24 20:39:31;;;;;;;;;;;;;;;;;;5037029;28;19925;-77
2023/10/24 20:41:58;;;;;;;;;;;;;;;;;;5037056;28;19925;-78
2023/10/24 20:44:26;;;;;;;;;;;;;;;;;;5037023;28;19999;-78
2023/10/24 20:46:53;;;;;;;;;;;;;;;;;;5038085;28;19929;-78
2023/10/24 20:49:20;;;;;;;;;;;;;;;;;;5037608;28;19925;-78
2023/10/24 20:51:47;;;;;;;;;;;;;;;;;;5037349;28;19932;-78